Time;durP1;ratioP1;P1;durP2;ratioP2;P2;SDS_P1;SDS_P2;PMS_P1;PMS_P2;Temp;Humidity;BMP_temperature;BMP_pressure;BME280_temperature;BME280_humidity;BME280_pressure;Samples;Min_cycle;Max_cycle;Signal;HPM_P1;HPM_P2
2022/03/04 00:00:06;;;;;;;12.27;7.60;;;;;;;;;;5047932;28;20178;-75
2022/03/04 00:02:32;;;;;;;10.97;7.97;;;;;;;;;;5031820;28;20182;-75
2022/03/04 00:04:57;;;;;;;11.70;7.37;;;;;;;;;;5039713;28;20239;-75
2022/03/04 00:07:22;;;;;;;12.40;7.40;;;;;;;;;;5027980;28;20229;-76
2022/03/04 00:09:47;;;;;;;11.83;8.07;;;;;;;;;;5041864;28;20175;-75
2022/03/04 00:12:13;;;;;;;11.90;7.90;;;;;;;;;;5024968;28;20187;-75
2022/03/04 00:14:38;;;;;;;12.23;8.63;;;;;;;;;;5029574;28;20207;-75
2022/03/04 00:17:04;;;;;;;11.87;8.07;;;;;;;;;;5029100;28;20210;-75
2022/03/04 00:19:29;;;;;;;13.23;8.23;;;;;;;;;;5033440;28;20185;-75
2022/03/04 00:21:54;;;;;;;11.63;7.93;;;;;;;;;;5029688;28;20246;-75
2022/03/04 00:24:21;;;;;;;9.60;7.17;;;;;;;;;;5027685;28;20244;-75
2022/03/04 00:26:48;;;;;;;11.40;7.53;;;;;;;;;;5027928;28;20194;-75
2022/03/04 00:29:13;;;;;;;11.27;7.90;;;;;;;;;;5026866;28;20179;-75
2022/03/04 00:31:39;;;;;;;14.20;8.73;;;;;;;;;;5027949;28;20178;-76
2022/03/04 00:34:06;;;;;;;15.73;9.87;;;;;;;;;;5026670;28;20178;-75
2022/03/04 00:36:32;;;;;;;16.50;10.10;;;;;;;;;;5029638;28;20190;-75
2022/03/04 00:38:57;;;;;;;15.97;9.53;;;;;;;;;;5028191;28;20662;-75
2022/03/04 00:41:23;;;;;;;15.13;9.67;;;;;;;;;;5030101;28;20179;-75
2022/03/04 00:43:48;;;;;;;14.10;9.87;;;;;;;;;;5030796;28;20171;-75
2022/03/04 00:46:14;;;;;;;16.13;8.70;;;;;;;;;;5030299;28;20175;-75
2022/03/04 00:48:40;;;;;;;13.57;8.60;;;;;;;;;;5027577;28;20426;-75
2022/03/04 00:51:05;;;;;;;11.77;7.63;;;;;;;;;;5030025;28;20178;-75
2022/03/04 00:53:30;;;;;;;14.83;8.23;;;;;;;;;;5046040;28;20579;-75
2022/03/04 00:55:56;;;;;;;11.70;7.93;;;;;;;;;;5052632;28;20170;-75
2022/03/04 00:58:21;;;;;;;15.03;8.13;;;;;;;;;;5035866;28;20201;-75
2022/03/04 01:00:47;;;;;;;14.47;9.50;;;;;;;;;;5034984;28;20201;-75
2022/03/04 01:03:12;;;;;;;10.33;8.00;;;;;;;;;;5037570;28;20173;-75
2022/03/04 01:05:38;;;;;;;16.23;8.53;;;;;;;;;;5034411;28;20190;-75
2022/03/04 01:08:03;;;;;;;12.47;7.50;;;;;;;;;;5050141;28;20214;-75
2022/03/04 01:10:28;;;;;;;13.00;9.20;;;;;;;;;;5033871;28;20199;-75
2022/03/04 01:12:53;;;;;;;13.33;8.97;;;;;;;;;;5034004;28;20430;-75
2022/03/04 01:15:18;;;;;;;13.00;8.07;;;;;;;;;;5034091;28;20186;-75
2022/03/04 01:17:44;;;;;;;12.17;8.23;;;;;;;;;;5035720;28;20202;-75
2022/03/04 01:20:09;;;;;;;13.43;8.70;;;;;;;;;;5047110;28;20193;-75
2022/03/04 01:22:34;;;;;;;13.00;8.73;;;;;;;;;;5036822;28;20184;-75
2022/03/04 01:24:59;;;;;;;12.90;9.33;;;;;;;;;;5035727;28;20178;-75
2022/03/04 01:27:25;;;;;;;12.27;8.30;;;;;;;;;;5036008;28;20189;-75
2022/03/04 01:29:50;;;;;;;13.00;8.63;;;;;;;;;;5054795;28;20607;-75
2022/03/04 01:32:15;;;;;;;17.37;8.70;;;;;;;;;;5034744;28;20178;-75
2022/03/04 01:34:41;;;;;;;14.50;8.50;;;;;;;;;;5049023;28;20184;-75
2022/03/04 01:37:07;;;;;;;13.87;9.03;;;;;;;;;;5034624;28;20229;-75
2022/03/04 01:39:32;;;;;;;11.63;7.73;;;;;;;;;;5049824;28;20187;-75
2022/03/04 01:41:57;;;;;;;15.33;9.20;;;;;;;;;;5052876;28;20234;-75
2022/03/04 01:44:22;;;;;;;14.53;9.53;;;;;;;;;;5034689;28;20178;-74
2022/03/04 01:46:48;;;;;;;13.57;8.63;;;;;;;;;;5035465;28;20182;-74
2022/03/04 01:49:13;;;;;;;13.20;8.60;;;;;;;;;;5050505;28;20178;-74
2022/03/04 01:51:38;;;;;;;14.53;8.87;;;;;;;;;;5050680;28;20174;-74
2022/03/04 01:54:04;;;;;;;14.93;9.03;;;;;;;;;;5053340;28;20173;-74
2022/03/04 01:56:29;;;;;;;13.33;9.13;;;;;;;;;;5034438;28;20248;-74
2022/03/04 01:58:54;;;;;;;13.93;8.23;;;;;;;;;;5035631;28;20178;-74
2022/03/04 02:01:19;;;;;;;12.73;8.50;;;;;;;;;;5034253;28;20288;-74
2022/03/04 02:03:45;;;;;;;13.23;8.43;;;;;;;;;;5034698;28;20193;-74
2022/03/04 02:06:10;;;;;;;13.43;8.17;;;;;;;;;;5053663;28;20170;-74
2022/03/04 02:08:36;;;;;;;15.73;9.17;;;;;;;;;;5029478;28;20410;-74
2022/03/04 02:11:01;;;;;;;13.50;8.77;;;;;;;;;;5038838;28;20255;-74
2022/03/04 02:13:26;;;;;;;12.90;8.60;;;;;;;;;;5034650;28;20173;-74
2022/03/04 02:15:51;;;;;;;13.77;8.27;;;;;;;;;;5052042;28;20170;-74
2022/03/04 02:18:17;;;;;;;12.00;7.93;;;;;;;;;;5029389;28;20229;-74
2022/03/04 02:20:47;;;;;;;13.10;8.20;;;;;;;;;;5049258;28;20185;-74
2022/03/04 02:23:13;;;;;;;14.07;9.30;;;;;;;;;;5049887;28;20181;-74
2022/03/04 02:25:44;;;;;;;12.87;8.23;;;;;;;;;;5032429;28;20290;-74
2022/03/04 02:28:09;;;;;;;12.30;8.87;;;;;;;;;;5032147;28;20263;-74
2022/03/04 02:30:36;;;;;;;10.27;7.40;;;;;;;;;;5036206;28;20274;-74
2022/03/04 02:33:02;;;;;;;15.30;7.83;;;;;;;;;;5033137;28;20189;-74
2022/03/04 02:35:27;;;;;;;12.63;8.37;;;;;;;;;;5033346;28;20169;-74
2022/03/04 02:37:53;;;;;;;13.50;8.10;;;;;;;;;;5062597;28;20277;-74
2022/03/04 02:40:18;;;;;;;12.13;7.80;;;;;;;;;;5032558;28;20176;-74
2022/03/04 02:42:43;;;;;;;13.60;9.03;;;;;;;;;;5033926;28;20262;-74
2022/03/04 02:45:08;;;;;;;14.70;8.57;;;;;;;;;;5032188;28;20181;-74
2022/03/04 02:47:33;;;;;;;13.87;8.43;;;;;;;;;;5053779;28;20269;-74
2022/03/04 02:49:59;;;;;;;12.00;8.03;;;;;;;;;;5053838;28;20170;-74
2022/03/04 02:52:24;;;;;;;11.87;7.90;;;;;;;;;;5043458;28;20236;-74
2022/03/04 02:54:49;;;;;;;12.90;8.50;;;;;;;;;;5046864;28;20183;-74
2022/03/04 02:57:14;;;;;;;12.90;7.87;;;;;;;;;;5048609;28;20198;-74
2022/03/04 02:59:39;;;;;;;12.93;8.33;;;;;;;;;;5033643;28;20281;-74
2022/03/04 03:02:05;;;;;;;12.37;7.47;;;;;;;;;;5032424;28;20170;-74
2022/03/04 03:04:30;;;;;;;13.17;8.53;;;;;;;;;;5035427;28;20201;-75
2022/03/04 03:06:55;;;;;;;17.97;8.43;;;;;;;;;;5033322;28;20213;-75
2022/03/04 03:09:20;;;;;;;11.00;8.10;;;;;;;;;;5031524;28;20247;-75
2022/03/04 03:11:45;;;;;;;12.13;7.70;;;;;;;;;;5035066;28;20173;-75
2022/03/04 03:14:11;;;;;;;15.03;8.73;;;;;;;;;;5050466;28;20276;-75
2022/03/04 03:16:36;;;;;;;11.83;7.83;;;;;;;;;;5033410;28;20194;-75
2022/03/04 03:19:01;;;;;;;12.13;8.20;;;;;;;;;;5053217;28;20172;-75
2022/03/04 03:21:26;;;;;;;10.87;7.77;;;;;;;;;;5049015;28;20183;-75
2022/03/04 03:23:51;;;;;;;12.43;7.67;;;;;;;;;;5048726;28;20170;-75
2022/03/04 03:26:17;;;;;;;15.80;8.90;;;;;;;;;;5029815;28;20186;-75
2022/03/04 03:28:42;;;;;;;14.87;7.80;;;;;;;;;;5049031;28;20249;-75
2022/03/04 03:31:07;;;;;;;12.30;8.30;;;;;;;;;;5032925;28;20180;-75
2022/03/04 03:33:32;;;;;;;13.40;8.40;;;;;;;;;;5034711;28;20186;-75
2022/03/04 03:35:58;;;;;;;14.93;9.50;;;;;;;;;;5033977;28;20174;-76
2022/03/04 03:38:23;;;;;;;14.83;8.57;;;;;;;;;;5034697;28;20206;-76
2022/03/04 03:40:49;;;;;;;14.47;8.40;;;;;;;;;;5048985;28;20167;-76
2022/03/04 03:43:14;;;;;;;15.50;9.57;;;;;;;;;;5035359;28;20190;-76
2022/03/04 03:45:40;;;;;;;15.53;9.50;;;;;;;;;;5031963;28;20182;-76
2022/03/04 03:48:05;;;;;;;14.07;7.73;;;;;;;;;;5029299;28;20176;-76
2022/03/04 03:50:30;;;;;;;16.10;8.83;;;;;;;;;;5031138;28;20195;-76
2022/03/04 03:52:56;;;;;;;15.93;7.90;;;;;;;;;;5032176;28;20204;-76
2022/03/04 03:55:21;;;;;;;14.53;8.40;;;;;;;;;;5049398;28;20184;-76
2022/03/04 03:57:46;;;;;;;13.10;8.60;;;;;;;;;;5032050;28;20204;-76
2022/03/04 04:00:12;;;;;;;11.27;7.97;;;;;;;;;;5048675;28;20176;-76
2022/03/04 04:02:37;;;;;;;13.03;8.03;;;;;;;;;;5032825;28;20222;-76
2022/03/04 04:05:02;;;;;;;16.57;9.67;;;;;;;;;;5035511;28;20201;-76
2022/03/04 04:07:27;;;;;;;14.20;9.53;;;;;;;;;;5029854;28;20229;-75
2022/03/04 04:09:53;;;;;;;12.67;8.30;;;;;;;;;;5026719;28;20179;-76
2022/03/04 04:12:18;;;;;;;15.63;8.83;;;;;;;;;;5028554;28;20259;-75
2022/03/04 04:14:43;;;;;;;15.83;8.70;;;;;;;;;;5030647;28;20174;-75
2022/03/04 04:17:08;;;;;;;15.93;8.87;;;;;;;;;;5029289;28;20202;-75
2022/03/04 04:19:33;;;;;;;16.00;9.70;;;;;;;;;;5035052;28;20176;-76
2022/03/04 04:21:59;;;;;;;16.10;9.73;;;;;;;;;;5028464;28;20181;-76
2022/03/04 04:24:24;;;;;;;14.97;11.07;;;;;;;;;;5029023;28;20185;-76
2022/03/04 04:26:49;;;;;;;16.47;10.73;;;;;;;;;;5026442;28;20202;-76
2022/03/04 04:29:14;;;;;;;15.10;9.13;;;;;;;;;;5026513;28;20290;-76
2022/03/04 04:31:40;;;;;;;17.00;9.07;;;;;;;;;;5027852;28;20211;-76
2022/03/04 04:34:05;;;;;;;15.77;8.77;;;;;;;;;;5024901;28;20179;-76
2022/03/04 04:36:30;;;;;;;15.73;8.83;;;;;;;;;;5029241;28;20283;-76
2022/03/04 04:38:55;;;;;;;14.57;9.60;;;;;;;;;;5027355;28;20224;-76
2022/03/04 04:41:21;;;;;;;14.17;8.87;;;;;;;;;;5028229;28;20180;-76
2022/03/04 04:43:46;;;;;;;16.13;9.57;;;;;;;;;;5019767;28;20188;-76
2022/03/04 04:46:12;;;;;;;14.17;8.93;;;;;;;;;;5041791;28;20199;-77
2022/03/04 04:48:37;;;;;;;18.63;10.20;;;;;;;;;;5029560;28;20254;-76
2022/03/04 04:51:02;;;;;;;14.80;9.50;;;;;;;;;;5031125;28;20221;-76
2022/03/04 04:53:28;;;;;;;16.43;9.77;;;;;;;;;;5029051;28;20171;-76
2022/03/04 04:55:53;;;;;;;12.97;8.83;;;;;;;;;;5025606;28;20223;-77
2022/03/04 04:58:19;;;;;;;15.53;8.97;;;;;;;;;;5027776;28;20216;-76
2022/03/04 05:00:45;;;;;;;14.50;10.03;;;;;;;;;;5027626;28;20176;-76
2022/03/04 05:03:12;;;;;;;16.57;9.63;;;;;;;;;;5028654;28;20177;-77
2022/03/04 05:05:37;;;;;;;15.87;9.97;;;;;;;;;;5031542;28;20190;-76
2022/03/04 05:08:03;;;;;;;17.57;10.43;;;;;;;;;;5029005;28;20226;-76
2022/03/04 05:10:28;;;;;;;15.00;9.20;;;;;;;;;;5028598;28;20180;-76
2022/03/04 05:12:54;;;;;;;15.47;9.63;;;;;;;;;;5027968;28;20202;-76
2022/03/04 05:15:19;;;;;;;17.13;9.50;;;;;;;;;;5027520;28;20179;-76
2022/03/04 05:17:44;;;;;;;20.40;12.83;;;;;;;;;;5028297;28;20286;-76
2022/03/04 05:20:10;;;;;;;19.60;11.30;;;;;;;;;;5030508;28;20178;-76
2022/03/04 05:22:35;;;;;;;24.30;13.93;;;;;;;;;;5020625;28;20171;-76
2022/03/04 05:25:00;;;;;;;25.10;13.90;;;;;;;;;;5027193;28;20185;-76
2022/03/04 05:27:25;;;;;;;17.93;12.30;;;;;;;;;;5027861;28;20182;-76
2022/03/04 05:29:51;;;;;;;16.60;11.50;;;;;;;;;;5029937;28;20184;-76
2022/03/04 05:32:16;;;;;;;19.43;12.00;;;;;;;;;;5029140;28;20236;-76
2022/03/04 05:34:41;;;;;;;19.60;10.93;;;;;;;;;;5048256;28;20182;-76
2022/03/04 05:37:06;;;;;;;20.00;12.73;;;;;;;;;;5029970;28;20217;-76
2022/03/04 05:39:32;;;;;;;15.00;9.87;;;;;;;;;;5041392;28;20174;-76
2022/03/04 05:41:57;;;;;;;16.70;10.67;;;;;;;;;;5046517;28;20179;-76
2022/03/04 05:44:22;;;;;;;18.07;10.17;;;;;;;;;;5035572;28;20181;-76
2022/03/04 05:46:47;;;;;;;19.87;11.43;;;;;;;;;;5041578;28;20181;-76
2022/03/04 05:49:12;;;;;;;18.77;12.53;;;;;;;;;;5036053;28;20192;-76
2022/03/04 05:51:38;;;;;;;19.07;11.83;;;;;;;;;;5034993;28;20181;-76
2022/03/04 05:54:03;;;;;;;18.27;12.03;;;;;;;;;;5034250;28;20181;-76
2022/03/04 05:56:28;;;;;;;19.80;13.30;;;;;;;;;;5034448;28;20270;-76
2022/03/04 05:58:53;;;;;;;18.33;11.50;;;;;;;;;;5038966;28;20178;-76
2022/03/04 06:01:18;;;;;;;18.37;11.23;;;;;;;;;;5033378;28;20174;-76
2022/03/04 06:03:44;;;;;;;22.70;12.17;;;;;;;;;;5035045;28;20201;-76
2022/03/04 06:06:09;;;;;;;17.23;11.03;;;;;;;;;;5051470;28;20233;-76
2022/03/04 06:08:36;;;;;;;18.87;11.87;;;;;;;;;;5033482;28;20222;-76
2022/03/04 06:11:01;;;;;;;19.83;12.90;;;;;;;;;;5050314;28;20253;-76
2022/03/04 06:13:26;;;;;;;19.97;11.80;;;;;;;;;;5032298;28;20297;-75
2022/03/04 06:15:51;;;;;;;19.20;11.67;;;;;;;;;;5033781;28;20178;-75
2022/03/04 06:18:16;;;;;;;19.10;10.17;;;;;;;;;;5033802;28;20260;-76
2022/03/04 06:20:44;;;;;;;18.83;11.87;;;;;;;;;;5033455;28;20196;-76
2022/03/04 06:23:09;;;;;;;16.07;10.33;;;;;;;;;;5052278;28;20234;-75
2022/03/04 06:25:34;;;;;;;19.00;10.30;;;;;;;;;;5050113;28;20265;-75
2022/03/04 06:28:00;;;;;;;20.20;12.67;;;;;;;;;;5031716;28;20405;-76
2022/03/04 06:30:26;;;;;;;23.03;13.80;;;;;;;;;;5033194;28;20181;-76
2022/03/04 06:33:29;;;;;;;22.98;17.50;;;;;;;;;;5033064;28;20432;-75
2022/03/04 06:35:37;;;;;;;17.50;10.97;;;;;;;;;;5054227;28;20221;-75
2022/03/04 06:38:02;;;;;;;20.30;11.07;;;;;;;;;;5035772;28;20231;-75
2022/03/04 06:40:28;;;;;;;23.23;13.47;;;;;;;;;;5037743;28;20236;-75
2022/03/04 06:42:53;;;;;;;21.10;13.40;;;;;;;;;;5035812;28;20265;-75
2022/03/04 06:45:18;;;;;;;17.87;10.53;;;;;;;;;;5036165;28;20178;-76
2022/03/04 06:50:47;;;;;;;16.83;10.27;;;;;;;;;;5050565;28;20224;-75
2022/03/04 06:53:13;;;;;;;17.10;11.73;;;;;;;;;;5033376;28;20274;-75
2022/03/04 06:55:38;;;;;;;19.43;13.40;;;;;;;;;;5034603;28;20269;-77
2022/03/04 06:58:03;;;;;;;27.45;14.57;;;;;;;;;;5031852;28;20428;-74
2022/03/04 07:00:31;;;;;;;23.13;15.27;;;;;;;;;;5031207;28;20401;-77
2022/03/04 07:02:56;;;;;;;18.17;11.73;;;;;;;;;;5029179;28;20174;-75
2022/03/04 07:05:21;;;;;;;23.33;13.13;;;;;;;;;;5034662;28;20281;-75
2022/03/04 07:07:50;;;;;;;20.60;12.27;;;;;;;;;;5052202;28;20221;-75
2022/03/04 07:10:15;;;;;;;18.93;11.63;;;;;;;;;;5030961;28;20235;-75
2022/03/04 07:12:41;;;;;;;22.07;13.07;;;;;;;;;;5031961;28;20186;-75
2022/03/04 07:15:07;;;;;;;20.07;12.80;;;;;;;;;;5048597;28;20167;-75
2022/03/04 07:17:32;;;;;;;20.97;14.00;;;;;;;;;;5031240;28;20218;-75
2022/03/04 07:19:58;;;;;;;24.33;12.70;;;;;;;;;;5031404;28;20181;-75
2022/03/04 07:22:23;;;;;;;17.87;10.70;;;;;;;;;;5031974;28;20178;-75
2022/03/04 07:24:48;;;;;;;19.90;11.57;;;;;;;;;;5032229;28;20178;-75
2022/03/04 07:27:13;;;;;;;23.00;12.03;;;;;;;;;;5031903;28;20182;-76
2022/03/04 07:29:38;;;;;;;21.80;10.67;;;;;;;;;;5032723;28;20224;-76
2022/03/04 07:32:04;;;;;;;18.80;12.37;;;;;;;;;;5033617;28;20190;-76
2022/03/04 07:34:29;;;;;;;19.37;12.03;;;;;;;;;;5029674;28;20174;-75
2022/03/04 07:36:54;;;;;;;20.60;12.07;;;;;;;;;;5035035;28;20190;-75
2022/03/04 07:39:20;;;;;;;19.23;11.43;;;;;;;;;;5028571;28;20170;-75
2022/03/04 07:41:48;;;;;;;15.70;9.07;;;;;;;;;;5025913;28;20224;-74
2022/03/04 07:44:13;;;;;;;16.37;10.27;;;;;;;;;;5032513;28;20185;-74
2022/03/04 07:46:38;;;;;;;19.57;11.50;;;;;;;;;;5031964;28;20182;-74
2022/03/04 07:49:04;;;;;;;20.73;11.27;;;;;;;;;;5049035;28;20179;-74
2022/03/04 07:51:29;;;;;;;25.47;10.40;;;;;;;;;;5031492;28;20185;-74
2022/03/04 07:53:55;;;;;;;17.87;11.30;;;;;;;;;;5031873;28;20217;-74
2022/03/04 07:56:20;;;;;;;17.83;10.87;;;;;;;;;;5033550;28;20187;-74
2022/03/04 07:58:45;;;;;;;18.87;10.30;;;;;;;;;;5030304;28;20473;-74
2022/03/04 08:01:10;;;;;;;18.07;11.47;;;;;;;;;;5033880;28;20174;-73
2022/03/04 08:03:35;;;;;;;20.43;11.93;;;;;;;;;;5048395;28;20203;-74
2022/03/04 08:06:01;;;;;;;14.93;9.20;;;;;;;;;;5033244;28;20183;-73
2022/03/04 08:08:26;;;;;;;20.07;10.87;;;;;;;;;;5027995;28;20211;-73
2022/03/04 08:10:53;;;;;;;19.70;9.90;;;;;;;;;;5032478;28;20194;-74
2022/03/04 08:13:18;;;;;;;19.50;11.23;;;;;;;;;;5029746;28;20240;-73
2022/03/04 08:15:43;;;;;;;17.57;9.87;;;;;;;;;;5030123;28;20188;-73
2022/03/04 08:18:08;;;;;;;19.47;10.43;;;;;;;;;;5025190;28;20285;-73
2022/03/04 08:20:34;;;;;;;15.03;9.60;;;;;;;;;;5007634;28;20274;-73
2022/03/04 08:22:59;;;;;;;10.10;7.60;;;;;;;;;;5016257;28;20179;-74
2022/03/04 08:25:24;;;;;;;20.10;11.27;;;;;;;;;;5011618;28;20184;-73
2022/03/04 08:27:50;;;;;;;12.27;7.50;;;;;;;;;;5028409;28;20222;-74
2022/03/04 08:30:15;;;;;;;16.27;10.17;;;;;;;;;;5015666;28;20191;-74
2022/03/04 08:32:40;;;;;;;14.50;10.43;;;;;;;;;;5007966;28;20179;-74
2022/03/04 08:35:06;;;;;;;15.17;9.97;;;;;;;;;;5011227;28;20181;-74
2022/03/04 08:37:32;;;;;;;20.73;11.23;;;;;;;;;;5014477;28;20202;-74
2022/03/04 08:39:57;;;;;;;17.73;11.80;;;;;;;;;;5026709;28;20287;-74
2022/03/04 08:42:23;;;;;;;18.63;10.87;;;;;;;;;;5016311;28;20211;-74
2022/03/04 08:44:48;;;;;;;19.83;10.67;;;;;;;;;;5032882;28;20177;-74
2022/03/04 08:47:13;;;;;;;20.50;12.27;;;;;;;;;;5015271;28;20199;-74
2022/03/04 08:49:39;;;;;;;19.53;10.43;;;;;;;;;;5027544;28;20186;-74
2022/03/04 08:52:04;;;;;;;15.70;10.07;;;;;;;;;;5011003;28;20178;-74
2022/03/04 08:54:30;;;;;;;25.00;11.97;;;;;;;;;;5011115;28;20209;-75
2022/03/04 08:56:55;;;;;;;22.97;13.73;;;;;;;;;;5023501;28;20241;-74
2022/03/04 08:59:20;;;;;;;22.40;12.77;;;;;;;;;;5025186;28;20181;-75
2022/03/04 09:01:45;;;;;;;19.30;10.23;;;;;;;;;;5007351;28;20228;-75
2022/03/04 09:04:14;;;;;;;19.33;11.87;;;;;;;;;;5026727;28;20297;-75
2022/03/04 09:06:39;;;;;;;22.13;12.97;;;;;;;;;;5007232;28;20179;-77
2022/03/04 09:09:04;;;;;;;16.37;9.63;;;;;;;;;;5017695;28;20224;-79
2022/03/04 09:11:30;;;;;;;19.47;11.50;;;;;;;;;;5031343;28;20192;-78
2022/03/04 09:13:55;;;;;;;19.43;11.73;;;;;;;;;;5044765;28;20615;-78
2022/03/04 09:16:20;;;;;;;18.07;10.87;;;;;;;;;;5048148;28;20178;-78
2022/03/04 09:18:45;;;;;;;21.70;11.83;;;;;;;;;;5033225;28;20268;-78
2022/03/04 09:21:11;;;;;;;17.60;10.43;;;;;;;;;;5034605;28;20228;-78
2022/03/04 09:23:36;;;;;;;22.20;11.37;;;;;;;;;;5039168;28;20254;-77
2022/03/04 09:26:01;;;;;;;21.97;12.07;;;;;;;;;;5035331;28;20178;-77
2022/03/04 09:28:26;;;;;;;20.43;10.67;;;;;;;;;;5051804;28;20201;-77
2022/03/04 09:30:51;;;;;;;18.07;12.07;;;;;;;;;;5034830;28;20223;-77
2022/03/04 09:33:17;;;;;;;18.07;10.87;;;;;;;;;;5036600;28;20176;-77
2022/03/04 09:35:42;;;;;;;24.27;11.93;;;;;;;;;;5036271;28;20194;-77
2022/03/04 09:38:07;;;;;;;20.27;12.37;;;;;;;;;;5032002;28;20190;-76
2022/03/04 09:40:32;;;;;;;22.50;10.23;;;;;;;;;;5033006;28;20174;-76
2022/03/04 09:42:58;;;;;;;18.13;11.20;;;;;;;;;;5032956;28;20178;-72
2022/03/04 09:45:23;;;;;;;22.03;13.53;;;;;;;;;;5047212;28;20180;-72
2022/03/04 09:47:48;;;;;;;18.70;10.47;;;;;;;;;;5033694;28;20228;-72
2022/03/04 09:50:16;;;;;;;16.80;9.97;;;;;;;;;;5030867;28;20275;-73
2022/03/04 09:52:41;;;;;;;28.40;13.53;;;;;;;;;;5034471;28;20209;-73
2022/03/04 09:55:07;;;;;;;14.70;10.80;;;;;;;;;;5023536;28;20174;-73
2022/03/04 09:57:32;;;;;;;17.20;11.00;;;;;;;;;;5054051;28;20509;-73
2022/03/04 09:59:57;;;;;;;18.97;12.00;;;;;;;;;;5033883;28;20337;-73
2022/03/04 10:02:25;;;;;;;18.47;11.07;;;;;;;;;;5043919;28;20262;-73
2022/03/04 10:04:56;;;;;;;18.57;10.27;;;;;;;;;;5034593;28;20201;-73
2022/03/04 10:07:21;;;;;;;17.03;9.97;;;;;;;;;;5034445;28;20173;-73
2022/03/04 10:09:47;;;;;;;17.77;10.37;;;;;;;;;;5030134;28;20193;-73
2022/03/04 10:12:13;;;;;;;21.83;9.20;;;;;;;;;;5050682;28;20178;-73
2022/03/04 10:15:02;;;;;;;16.43;9.13;;;;;;;;;;5050442;28;20184;-72
2022/03/04 10:17:27;;;;;;;16.23;9.77;;;;;;;;;;5025750;28;20206;-72
2022/03/04 10:19:53;;;;;;;14.73;10.07;;;;;;;;;;5050752;28;20174;-72
2022/03/04 10:22:19;;;;;;;14.97;10.00;;;;;;;;;;5051276;28;20227;-72
2022/03/04 10:24:45;;;;;;;16.57;9.33;;;;;;;;;;5048374;28;20178;-72
2022/03/04 10:27:12;;;;;;;17.60;9.67;;;;;;;;;;5050087;28;20177;-72
2022/03/04 10:29:42;;;;;;;16.07;10.17;;;;;;;;;;5032041;28;20178;-72
2022/03/04 10:32:26;;;;;;;17.17;9.90;;;;;;;;;;5033499;28;20182;-72
2022/03/04 10:35:03;;;;;;;15.83;9.77;;;;;;;;;;5036715;28;20631;-72
2022/03/04 10:37:51;;;;;;;13.53;9.07;;;;;;;;;;5050857;28;20224;-72
2022/03/04 10:40:20;;;;;;;13.57;9.50;;;;;;;;;;5042509;28;20175;-72
2022/03/04 10:42:50;;;;;;;12.90;8.57;;;;;;;;;;5041020;28;20221;-72
2022/03/04 10:45:27;;;;;;;16.53;9.33;;;;;;;;;;5031102;28;20500;-72
2022/03/04 10:47:54;;;;;;;13.27;8.83;;;;;;;;;;5049477;28;20407;-72
2022/03/04 10:50:27;;;;;;;15.40;9.80;;;;;;;;;;5034117;28;20174;-72
2022/03/04 10:52:54;;;;;;;13.97;9.30;;;;;;;;;;5050033;28;20264;-72
2022/03/04 10:55:39;;;;;;;13.57;9.17;;;;;;;;;;5032475;28;20177;-72
2022/03/04 10:58:06;;;;;;;13.83;8.37;;;;;;;;;;5049857;28;20208;-72
2022/03/04 11:00:35;;;;;;;15.37;8.93;;;;;;;;;;5033205;28;20182;-72
2022/03/04 11:03:01;;;;;;;16.57;10.63;;;;;;;;;;5029073;28;20309;-72
2022/03/04 11:05:26;;;;;;;12.73;8.90;;;;;;;;;;5034231;28;20225;-72
2022/03/04 11:07:52;;;;;;;11.03;7.93;;;;;;;;;;5052836;28;20236;-72
2022/03/04 11:10:19;;;;;;;11.50;8.10;;;;;;;;;;5033949;28;20272;-72
2022/03/04 11:12:46;;;;;;;12.33;7.97;;;;;;;;;;5027032;28;20247;-72
2022/03/04 11:15:12;;;;;;;13.13;8.13;;;;;;;;;;5027589;28;20185;-72
2022/03/04 11:17:38;;;;;;;12.53;8.30;;;;;;;;;;5031431;28;20214;-72
2022/03/04 11:20:04;;;;;;;15.47;9.93;;;;;;;;;;5026762;28;20171;-72
2022/03/04 11:22:30;;;;;;;14.57;10.27;;;;;;;;;;5049495;28;20198;-72
2022/03/04 11:25:00;;;;;;;15.20;10.00;;;;;;;;;;5046436;28;20197;-72
2022/03/04 11:27:26;;;;;;;13.97;9.27;;;;;;;;;;5049402;28;20182;-72
2022/03/04 11:29:55;;;;;;;15.73;10.33;;;;;;;;;;5023967;28;20178;-72
2022/03/04 11:32:27;;;;;;;14.43;9.17;;;;;;;;;;5030986;28;20186;-72
2022/03/04 11:34:53;;;;;;;11.97;9.43;;;;;;;;;;5029552;28;20178;-72
2022/03/04 11:37:19;;;;;;;16.73;9.60;;;;;;;;;;5046526;28;20267;-72
2022/03/04 11:40:00;;;;;;;10.20;7.87;;;;;;;;;;5043498;28;20269;-72
2022/03/04 11:42:34;;;;;;;12.37;8.60;;;;;;;;;;5045282;28;20209;-72
2022/03/04 11:45:02;;;;;;;16.60;11.70;;;;;;;;;;5032385;28;20178;-72
2022/03/04 11:47:28;;;;;;;14.90;9.10;;;;;;;;;;5049791;28;20237;-72
2022/03/04 11:49:54;;;;;;;13.50;9.10;;;;;;;;;;5047779;28;20178;-72
2022/03/04 11:52:26;;;;;;;12.10;9.53;;;;;;;;;;5043675;28;20189;-72
2022/03/04 11:54:51;;;;;;;16.10;10.20;;;;;;;;;;5042710;28;20201;-72
2022/03/04 11:57:21;;;;;;;12.43;9.53;;;;;;;;;;5044934;28;20202;-72
2022/03/04 12:00:00;;;;;;;12.97;9.63;;;;;;;;;;5038180;28;20171;-72
2022/03/04 12:02:44;;;;;;;12.60;9.03;;;;;;;;;;5032004;28;20239;-72
2022/03/04 12:05:13;;;;;;;11.77;8.40;;;;;;;;;;5033674;28;20196;-72
2022/03/04 12:07:39;;;;;;;16.50;10.17;;;;;;;;;;5049413;28;20221;-72
2022/03/04 12:10:07;;;;;;;17.07;10.27;;;;;;;;;;5049536;28;20186;-73
2022/03/04 12:12:33;;;;;;;20.43;9.43;;;;;;;;;;5047785;28;20188;-72
2022/03/04 12:15:16;;;;;;;15.20;10.83;;;;;;;;;;5031730;28;20254;-72
2022/03/04 12:17:52;;;;;;;13.30;9.27;;;;;;;;;;5040484;28;20325;-72
2022/03/04 12:20:31;;;;;;;14.57;10.07;;;;;;;;;;5047514;28;20174;-72
2022/03/04 12:22:57;;;;;;;17.37;13.87;;;;;;;;;;5047435;28;20183;-72
2022/03/04 12:25:22;;;;;;;13.57;8.70;;;;;;;;;;5048160;28;20278;-72
2022/03/04 12:27:53;;;;;;;14.27;9.27;;;;;;;;;;5049471;28;20210;-72
2022/03/04 12:30:22;;;;;;;13.67;9.37;;;;;;;;;;5033704;28;20184;-72
2022/03/04 12:32:49;;;;;;;17.07;9.40;;;;;;;;;;5029949;28;20189;-72
2022/03/04 12:35:15;;;;;;;18.63;9.80;;;;;;;;;;5033146;28;20207;-72
2022/03/04 12:37:40;;;;;;;16.20;10.67;;;;;;;;;;5049692;28;20230;-72
2022/03/04 12:40:08;;;;;;;17.87;10.87;;;;;;;;;;5025388;28;20169;-72
2022/03/04 12:42:33;;;;;;;12.77;9.00;;;;;;;;;;5030718;28;20432;-72
2022/03/04 12:44:58;;;;;;;13.47;9.07;;;;;;;;;;5031639;28;20184;-72
2022/03/04 12:47:23;;;;;;;12.90;9.37;;;;;;;;;;5030167;28;21986;-72
2022/03/04 12:49:50;;;;;;;12.63;9.17;;;;;;;;;;5049237;28;20181;-72
2022/03/04 12:52:17;;;;;;;11.30;7.90;;;;;;;;;;5031031;28;20183;-72
2022/03/04 12:54:42;;;;;;;15.10;8.33;;;;;;;;;;5033651;28;20208;-72
2022/03/04 12:57:08;;;;;;;14.67;9.30;;;;;;;;;;5032833;28;20236;-72
2022/03/04 12:59:43;;;;;;;18.73;11.00;;;;;;;;;;5052287;28;20167;-72
2022/03/04 13:02:08;;;;;;;16.20;11.07;;;;;;;;;;5027795;28;20176;-72
2022/03/04 13:04:33;;;;;;;15.40;10.27;;;;;;;;;;5034928;28;20190;-72
2022/03/04 13:07:00;;;;;;;16.53;10.10;;;;;;;;;;5052599;28;20188;-72
2022/03/04 13:09:25;;;;;;;12.77;9.80;;;;;;;;;;5034592;28;20263;-72
2022/03/04 13:11:52;;;;;;;14.13;9.73;;;;;;;;;;5032737;28;20175;-72
2022/03/04 13:14:20;;;;;;;15.30;9.20;;;;;;;;;;5031478;28;20216;-72
2022/03/04 13:16:50;;;;;;;14.90;9.60;;;;;;;;;;5034493;28;20184;-72
2022/03/04 13:19:25;;;;;;;15.13;11.23;;;;;;;;;;5052371;28;20169;-72
2022/03/04 13:21:56;;;;;;;16.50;11.63;;;;;;;;;;5035867;28;20225;-72
2022/03/04 13:24:26;;;;;;;16.20;10.20;;;;;;;;;;5052381;28;20170;-72
2022/03/04 13:26:54;;;;;;;14.47;11.00;;;;;;;;;;5036790;28;20177;-72
2022/03/04 13:29:20;;;;;;;18.47;11.73;;;;;;;;;;5054229;28;20168;-72
2022/03/04 13:31:45;;;;;;;18.70;10.73;;;;;;;;;;5053016;28;20179;-72
2022/03/04 13:34:12;;;;;;;24.60;12.07;;;;;;;;;;5033016;28;20178;-72
2022/03/04 13:36:37;;;;;;;17.93;10.83;;;;;;;;;;5037996;28;20227;-72
2022/03/04 13:39:31;;;;;;;18.25;11.27;;;;;;;;;;5033687;28;20211;-72
2022/03/04 13:42:10;;;;;;;14.67;8.83;;;;;;;;;;5027316;28;20171;-72
2022/03/04 13:44:35;;;;;;;16.80;10.60;;;;;;;;;;5050013;28;20263;-72
2022/03/04 13:47:07;;;;;;;11.87;8.33;;;;;;;;;;5049051;28;20216;-72
2022/03/04 13:49:46;;;;;;;13.90;9.73;;;;;;;;;;5036177;28;20320;-72
2022/03/04 13:52:11;;;;;;;18.13;10.70;;;;;;;;;;5035642;28;20188;-72
2022/03/04 13:54:55;;;;;;;15.73;10.83;;;;;;;;;;5029085;28;20174;-72
2022/03/04 13:57:29;;;;;;;16.10;10.77;;;;;;;;;;5050267;28;20207;-72
2022/03/04 14:00:03;;;;;;;13.90;8.83;;;;;;;;;;5050913;28;20193;-72
2022/03/04 14:02:36;;;;;;;16.60;9.87;;;;;;;;;;5034563;28;20212;-72
2022/03/04 14:05:01;;;;;;;16.93;10.13;;;;;;;;;;5032210;28;20261;-72
2022/03/04 14:07:26;;;;;;;14.27;9.27;;;;;;;;;;5036841;28;20176;-72
2022/03/04 14:09:52;;;;;;;16.27;10.43;;;;;;;;;;5054633;28;20246;-72
2022/03/04 14:12:17;;;;;;;17.93;11.57;;;;;;;;;;5034371;28;20185;-72
2022/03/04 14:14:43;;;;;;;14.20;10.47;;;;;;;;;;5052405;28;20166;-72
2022/03/04 14:17:08;;;;;;;14.00;8.80;;;;;;;;;;5053420;28;20283;-72
2022/03/04 14:19:34;;;;;;;13.07;11.37;;;;;;;;;;5038590;28;20173;-72
2022/03/04 14:21:59;;;;;;;16.83;10.60;;;;;;;;;;5051048;28;20177;-72